Time;durP1;ratioP1;P1;durP2;ratioP2;P2;SDS_P1;SDS_P2;PMS_P1;PMS_P2;Temp;Humidity;BMP_temperature;BMP_pressure;BME280_temperature;BME280_humidity;BME280_pressure;Samples;Min_cycle;Max_cycle;Signal;HPM_P1;HPM_P2
2022/08/14 00:00:27;;;;;;;7.43;5.03;;;;;;;16.70;79.89;96004.53;5019451;28;20206;-68
2022/08/14 00:02:54;;;;;;;13.25;5.15;;;;;;;16.74;78.71;96000.44;5018857;28;20201;-68
2022/08/14 00:05:22;;;;;;;9.43;5.28;;;;;;;16.56;80.15;95995.09;5019385;28;20781;-70
2022/08/14 00:07:49;;;;;;;8.82;4.47;;;;;;;16.52;80.01;95997.34;5019324;28;20289;-69
2022/08/14 00:10:20;;;;;;;10.07;5.18;;;;;;;16.35;80.88;95994.66;5018973;28;20579;-69
2022/08/14 00:12:54;;;;;;;8.75;4.57;;;;;;;16.42;80.99;95996.22;5018249;28;20222;-70
2022/08/14 00:15:23;;;;;;;10.10;5.10;;;;;;;16.43;80.09;96000.50;5019350;28;20225;-69
2022/08/14 00:17:51;;;;;;;8.25;5.50;;;;;;;16.50;78.88;95990.63;5019902;28;20202;-70
2022/08/14 00:20:20;;;;;;;10.00;5.63;;;;;;;16.42;79.17;95982.09;5019055;28;20213;-69
2022/08/14 00:22:47;;;;;;;7.50;4.88;;;;;;;16.30;79.33;95987.31;5017568;28;20336;-69
2022/08/14 00:25:13;;;;;;;13.05;5.13;;;;;;;16.33;79.34;95981.59;5019385;28;20446;-68
2022/08/14 00:27:40;;;;;;;7.28;5.20;;;;;;;16.19;79.96;95972.06;5016310;28;20209;-68
2022/08/14 00:30:11;;;;;;;6.80;4.75;;;;;;;16.06;80.61;95971.34;5018752;28;20210;-69
2022/08/14 00:32:38;;;;;;;8.02;4.95;;;;;;;16.08;79.58;95969.28;5018423;28;20225;-69
2022/08/14 00:35:07;;;;;;;10.73;5.60;;;;;;;15.86;79.96;95957.41;5018800;28;20252;-69
2022/08/14 00:37:34;;;;;;;8.57;5.10;;;;;;;15.91;81.04;95957.56;5018082;28;20202;-69
2022/08/14 00:40:01;;;;;;;6.85;4.72;;;;;;;15.94;81.37;95957.94;5018849;28;20201;-69
2022/08/14 00:42:28;;;;;;;8.15;4.97;;;;;;;15.85;81.39;95959.25;5018199;28;20210;-69
2022/08/14 00:44:56;;;;;;;12.93;4.70;;;;;;;15.91;80.57;95945.09;5018429;28;20229;-69
2022/08/14 00:47:24;;;;;;;8.13;4.60;;;;;;;15.87;80.74;95949.22;5017892;28;20697;-68
2022/08/14 00:49:52;;;;;;;8.73;4.95;;;;;;;15.84;81.19;95941.66;5018706;28;20246;-69
2022/08/14 00:52:21;;;;;;;8.00;4.97;;;;;;;15.64;82.81;95934.06;5017782;28;20341;-70
2022/08/14 00:54:52;;;;;;;10.00;4.68;;;;;;;15.67;82.13;95936.28;5017905;28;20604;-69
2022/08/14 00:57:19;;;;;;;10.15;5.20;;;;;;;15.54;82.98;95934.53;5017916;28;20237;-68
2022/08/14 00:59:45;;;;;;;7.07;4.53;;;;;;;15.72;82.23;95923.16;5017400;28;20211;-69
2022/08/14 01:02:15;;;;;;;11.85;4.97;;;;;;;15.73;82.36;95914.19;5017452;28;20197;-68
2022/08/14 01:04:43;;;;;;;7.43;4.72;;;;;;;15.70;83.52;95910.09;5017961;28;20229;-69
2022/08/14 01:07:10;;;;;;;9.00;4.57;;;;;;;15.65;83.43;95915.25;5018337;28;20642;-69
2022/08/14 01:09:37;;;;;;;9.50;5.22;;;;;;;15.54;83.84;95912.47;5017997;28;20202;-69
2022/08/14 01:12:04;;;;;;;10.80;4.70;;;;;;;15.51;83.82;95910.25;5017716;28;20237;-68
2022/08/14 01:14:31;;;;;;;7.07;4.38;;;;;;;15.11;85.83;95908.84;5017549;28;20222;-68
2022/08/14 01:16:58;;;;;;;8.25;4.60;;;;;;;15.29;85.31;95893.84;5017389;28;21018;-69
2022/08/14 01:22:11;;;;;;;8.50;4.78;;;;;;;15.37;85.27;95895.44;5017854;28;20256;-69
2022/08/14 01:24:37;;;;;;;8.30;4.20;;;;;;;15.44;84.29;95901.50;5017138;28;20218;-69
2022/08/14 01:27:04;;;;;;;7.57;4.70;;;;;;;15.45;84.72;95895.16;5014867;28;20205;-69
2022/08/14 01:29:36;;;;;;;6.80;4.38;;;;;;;15.64;83.21;95894.22;5018728;28;20241;-69
2022/08/14 01:32:03;;;;;;;8.02;4.40;;;;;;;15.39;82.76;95893.41;5017912;28;20227;-67
2022/08/14 01:34:31;;;;;;;9.02;4.90;;;;;;;15.28;83.38;95888.75;5017193;28;20232;-70
2022/08/14 01:36:58;;;;;;;9.25;5.00;;;;;;;15.27;83.79;95889.78;5017581;28;20654;-70
2022/08/14 01:39:26;;;;;;;8.85;4.68;;;;;;;15.30;83.65;95889.38;5017675;28;20201;-69
2022/08/14 01:41:55;;;;;;;7.20;4.60;;;;;;;15.26;83.69;95890.78;5017129;28;20202;-69
2022/08/14 01:44:25;;;;;;;7.95;4.70;;;;;;;15.26;84.27;95883.66;5016378;28;20317;-69
2022/08/14 01:46:53;;;;;;;6.72;4.43;;;;;;;15.16;84.89;95877.16;5017624;28;20205;-67
2022/08/14 01:49:20;;;;;;;7.55;4.60;;;;;;;15.22;84.22;95876.31;5017489;28;20205;-69
2022/08/14 01:51:53;;;;;;;7.72;4.75;;;;;;;15.11;84.00;95865.53;5017031;28;20669;-70
2022/08/14 01:54:20;;;;;;;8.60;4.70;;;;;;;15.11;85.14;95871.69;5016676;28;20395;-68
2022/08/14 01:56:51;;;;;;;9.60;4.72;;;;;;;15.13;85.00;95866.97;5016807;28;20681;-69
2022/08/14 01:59:22;;;;;;;8.45;4.38;;;;;;;15.06;84.50;95865.38;5017187;28;20197;-69
2022/08/14 02:01:51;;;;;;;10.70;4.93;;;;;;;14.93;84.02;95876.06;5017081;28;20673;-69
2022/08/14 02:04:18;;;;;;;7.57;4.90;;;;;;;14.93;84.05;95860.97;5016003;28;20248;-69
2022/08/14 02:06:45;;;;;;;7.45;4.18;;;;;;;14.99;83.83;95854.78;5017066;28;20208;-69
2022/08/14 02:09:11;;;;;;;10.13;4.75;;;;;;;14.94;83.03;95846.69;5014877;28;20202;-69
2022/08/14 02:11:38;;;;;;;6.82;4.65;;;;;;;14.83;84.62;95855.31;5016663;28;20228;-68
2022/08/14 02:14:08;;;;;;;9.60;5.20;;;;;;;14.99;85.56;95851.34;5016168;28;20233;-68
2022/08/14 02:16:37;;;;;;;7.53;4.47;;;;;;;14.83;84.38;95855.31;5016875;28;20210;-69
2022/08/14 02:19:07;;;;;;;6.25;3.90;;;;;;;14.61;82.60;95853.16;5016818;28;20210;-69
2022/08/14 02:21:35;;;;;;;7.18;4.10;;;;;;;14.63;83.59;95852.97;5016840;28;20241;-68
2022/08/14 02:24:03;;;;;;;7.68;4.15;;;;;;;14.47;86.07;95850.78;5016361;28;20726;-68
2022/08/14 02:26:33;;;;;;;8.20;4.57;;;;;;;14.63;85.48;95855.63;5014110;28;20206;-69
2022/08/14 02:29:01;;;;;;;6.32;4.47;;;;;;;14.43;87.13;95847.72;5016759;28;20202;-69
2022/08/14 02:31:32;;;;;;;8.10;4.53;;;;;;;14.73;85.50;95839.03;5016608;28;20206;-69
2022/08/14 02:33:59;;;;;;;9.48;4.40;;;;;;;14.56;84.62;95845.03;5016245;28;20271;-69
2022/08/14 02:36:26;;;;;;;9.43;4.10;;;;;;;14.61;84.27;95849.69;5016047;28;20255;-68
2022/08/14 02:38:53;;;;;;;6.75;4.57;;;;;;;14.51;85.22;95849.31;5016583;28;20670;-69
2022/08/14 02:41:20;;;;;;;7.57;4.13;;;;;;;14.43;84.37;95847.72;5017863;28;20212;-68
2022/08/14 02:43:46;;;;;;;7.20;4.30;;;;;;;14.42;84.38;95850.59;5015595;28;20218;-69
2022/08/14 02:46:15;;;;;;;10.23;5.13;;;;;;;14.27;87.48;95847.41;5016551;28;21038;-68
2022/08/14 02:48:44;;;;;;;6.85;4.47;;;;;;;14.35;88.17;95844.50;5017242;28;20205;-69
2022/08/14 02:51:12;;;;;;;7.45;4.40;;;;;;;14.54;86.90;95840.97;5017038;28;20213;-69
2022/08/14 02:53:40;;;;;;;8.85;4.78;;;;;;;14.67;84.21;95834.56;5015575;28;20221;-68
2022/08/14 02:56:09;;;;;;;8.57;4.53;;;;;;;14.51;83.68;95834.25;5016915;28;20197;-69
2022/08/14 02:58:38;;;;;;;6.75;4.63;;;;;;;14.52;84.00;95830.56;5016212;28;20213;-69
2022/08/14 03:01:05;;;;;;;9.13;4.60;;;;;;;14.39;84.42;95819.22;5016428;28;20202;-69
2022/08/14 03:03:32;;;;;;;7.97;4.97;;;;;;;14.51;84.72;95807.75;5017143;28;20206;-69
2022/08/14 03:05:59;;;;;;;6.10;4.03;;;;;;;14.57;84.47;95806.06;5020308;28;20206;-69
2022/08/14 03:08:30;;;;;;;7.07;4.47;;;;;;;14.47;84.53;95795.91;5020015;28;20620;-68
2022/08/14 03:10:57;;;;;;;7.13;4.72;;;;;;;14.46;83.94;95804.06;5020637;28;20209;-69
2022/08/14 03:13:24;;;;;;;6.38;4.32;;;;;;;14.31;83.15;95800.91;5019230;28;21181;-69
2022/08/14 03:15:52;;;;;;;7.85;4.97;;;;;;;14.26;84.80;95806.81;5020306;28;20198;-68
2022/08/14 03:18:22;;;;;;;8.38;4.80;;;;;;;14.39;85.29;95809.41;5020339;28;20208;-69
2022/08/14 03:20:49;;;;;;;8.90;4.50;;;;;;;14.32;87.34;95802.50;5020655;28;20209;-69
2022/08/14 03:23:18;;;;;;;8.15;5.00;;;;;;;14.34;87.67;95811.06;5019511;28;20289;-68
2022/08/14 03:25:46;;;;;;;7.55;4.65;;;;;;;14.23;87.69;95815.19;5019825;28;20226;-68
2022/08/14 03:28:13;;;;;;;8.63;4.85;;;;;;;14.20;87.32;95812.13;5017858;28;20205;-68
2022/08/14 03:30:40;;;;;;;6.65;4.60;;;;;;;14.11;87.39;95805.44;5019496;28;20210;-69
2022/08/14 03:33:08;;;;;;;6.30;4.40;;;;;;;14.13;86.70;95803.41;5019337;28;20608;-69
2022/08/14 03:35:35;;;;;;;7.72;4.97;;;;;;;14.14;87.17;95810.31;5019839;28;20233;-68
2022/08/14 03:38:07;;;;;;;7.72;4.35;;;;;;;14.23;86.55;95817.00;5019703;28;20202;-69
2022/08/14 03:40:36;;;;;;;8.20;4.88;;;;;;;14.08;87.57;95811.16;5019969;28;20213;-69
2022/08/14 03:43:04;;;;;;;8.02;4.97;;;;;;;14.06;87.96;95810.50;5019733;28;20649;-69
2022/08/14 03:45:31;;;;;;;8.63;4.90;;;;;;;14.10;89.01;95802.00;5019218;28;20316;-68
2022/08/14 03:47:59;;;;;;;8.10;4.85;;;;;;;14.15;88.56;95804.00;5019292;28;20229;-69
2022/08/14 03:50:26;;;;;;;12.23;5.15;;;;;;;14.16;86.42;95797.69;5019883;28;20209;-69
2022/08/14 03:52:53;;;;;;;9.60;4.50;;;;;;;13.92;85.75;95793.03;5019398;28;20226;-68
2022/08/14 03:55:19;;;;;;;8.25;5.35;;;;;;;13.98;88.13;95796.69;5018891;28;20218;-70
2022/08/14 03:57:48;;;;;;;8.20;5.05;;;;;;;14.12;87.68;95796.47;5019470;28;21249;-68
2022/08/14 04:00:15;;;;;;;7.35;4.72;;;;;;;14.04;86.95;95786.09;5020106;28;20209;-68
2022/08/14 04:02:42;;;;;;;12.30;5.53;;;;;;;13.97;88.78;95779.97;5018424;28;20724;-70
2022/08/14 04:05:09;;;;;;;8.82;5.70;;;;;;;13.95;89.03;95774.09;5019095;28;20233;-69
2022/08/14 04:07:37;;;;;;;10.05;5.35;;;;;;;13.95;88.79;95775.91;5019434;28;20218;-68
2022/08/14 04:10:05;;;;;;;7.97;5.13;;;;;;;13.94;86.26;95780.41;5019604;28;20201;-69
2022/08/14 04:12:32;;;;;;;8.30;4.93;;;;;;;13.84;85.68;95769.41;5018264;28;20228;-69
2022/08/14 04:15:00;;;;;;;10.27;4.97;;;;;;;13.81;87.51;95761.06;5018570;28;20245;-69
2022/08/14 04:17:28;;;;;;;7.75;4.50;;;;;;;13.68;88.42;95761.09;5018756;28;20208;-68
2022/08/14 04:19:54;;;;;;;10.45;5.60;;;;;;;13.43;92.09;95760.94;5018958;28;20206;-69
2022/08/14 04:22:22;;;;;;;8.85;5.53;;;;;;;13.70;89.18;95761.72;5018748;28;20198;-68
2022/08/14 04:24:49;;;;;;;10.57;5.20;;;;;;;13.72;88.39;95765.78;5018847;28;20287;-68
2022/08/14 04:27:15;;;;;;;7.88;5.45;;;;;;;13.73;89.92;95770.03;5015291;28;20198;-69
2022/08/14 04:29:43;;;;;;;11.02;5.53;;;;;;;13.77;90.24;95762.50;5018338;28;20263;-68
2022/08/14 04:32:12;;;;;;;11.80;5.20;;;;;;;13.93;90.62;95765.53;5018910;28;20209;-69
2022/08/14 04:34:40;;;;;;;8.65;5.07;;;;;;;13.96;89.86;95759.78;5018325;28;20226;-69
2022/08/14 04:45:20;;;;;;;10.57;5.43;;;;;;;14.18;88.69;95743.44;5017848;28;20220;-71
2022/08/14 04:50:34;;;;;;;9.90;5.30;;;;;;;14.25;87.74;95744.22;5017659;28;20259;-72
2022/08/14 04:53:01;;;;;;;8.52;5.60;;;;;;;14.36;86.57;95740.13;5016500;28;20206;-71
2022/08/14 04:55:27;;;;;;;7.40;5.10;;;;;;;14.15;87.98;95743.88;5017159;28;20226;-71
2022/08/14 04:57:54;;;;;;;8.38;5.18;;;;;;;14.26;87.97;95748.50;5017711;28;20206;-70
2022/08/14 05:00:21;;;;;;;13.38;5.32;;;;;;;14.39;88.02;95740.47;5018870;28;20213;-71
2022/08/14 05:02:49;;;;;;;9.93;5.50;;;;;;;14.48;88.59;95746.38;5017652;28;20202;-71
2022/08/14 05:05:16;;;;;;;9.73;5.57;;;;;;;14.47;88.32;95742.88;5017360;28;20292;-71
2022/08/14 05:07:42;;;;;;;10.35;6.35;;;;;;;14.67;88.87;95754.19;5017831;28;20205;-71
2022/08/14 05:10:09;;;;;;;11.65;5.50;;;;;;;14.82;88.52;95747.56;5018211;28;20202;-71
2022/08/14 05:12:39;;;;;;;8.02;5.32;;;;;;;14.86;88.05;95753.25;5017254;28;20197;-70
2022/08/14 05:15:06;;;;;;;8.77;5.50;;;;;;;14.91;88.15;95748.94;5017475;28;20229;-71
2022/08/14 05:17:33;;;;;;;10.10;5.90;;;;;;;14.99;88.02;95764.56;5018140;28;20297;-71
2022/08/14 05:20:01;;;;;;;10.77;5.80;;;;;;;15.28;87.99;95754.16;5017686;28;20209;-71
2022/08/14 05:22:28;;;;;;;7.93;5.05;;;;;;;15.58;87.36;95760.47;5016714;28;20206;-71
2022/08/14 05:24:55;;;;;;;13.38;4.57;;;;;;;15.98;85.71;95751.03;5017573;28;20222;-71
2022/08/14 05:27:21;;;;;;;8.30;5.22;;;;;;;16.43;84.00;95745.19;5013716;28;20206;-71
2022/08/14 05:29:48;;;;;;;8.30;5.47;;;;;;;16.71;81.84;95751.56;5017224;28;21126;-71
2022/08/14 05:32:15;;;;;;;6.65;4.63;;;;;;;17.01;80.84;95748.88;5017048;28;20674;-71
2022/08/14 05:34:42;;;;;;;11.23;6.55;;;;;;;17.01;79.67;95760.34;5017028;28;20272;-71
2022/08/14 05:37:10;;;;;;;9.02;6.13;;;;;;;16.80;83.01;95762.69;5017302;28;20206;-71
2022/08/14 05:39:40;;;;;;;13.25;5.93;;;;;;;16.89;83.13;95761.31;5017206;28;20744;-71
2022/08/14 05:42:06;;;;;;;8.63;5.75;;;;;;;16.59;83.21;95765.84;5017464;28;20263;-71
2022/08/14 05:44:33;;;;;;;8.73;5.80;;;;;;;16.27;84.72;95764.41;5016823;28;20224;-71
2022/08/14 05:47:00;;;;;;;11.57;5.82;;;;;;;16.47;85.09;95756.19;5017218;28;20209;-71
2022/08/14 05:49:28;;;;;;;10.32;5.68;;;;;;;16.72;84.72;95757.69;5017234;28;20209;-71
2022/08/14 05:51:55;;;;;;;11.18;6.38;;;;;;;16.88;83.65;95765.03;5017487;28;20209;-71
2022/08/14 05:54:22;;;;;;;13.25;6.40;;;;;;;16.91;83.01;95773.38;5016655;28;20230;-71
2022/08/14 05:56:49;;;;;;;14.48;6.13;;;;;;;16.91;83.67;95769.91;5017222;28;20674;-71
2022/08/14 05:59:15;;;;;;;12.57;6.05;;;;;;;17.01;83.24;95770.19;5017217;28;20206;-71
2022/08/14 06:01:42;;;;;;;11.50;6.40;;;;;;;17.17;82.97;95764.97;5016607;28;20216;-71
2022/08/14 06:04:08;;;;;;;11.93;6.30;;;;;;;17.28;82.86;95757.06;5016360;28;20218;-71
2022/08/14 06:06:35;;;;;;;8.27;5.90;;;;;;;17.49;82.40;95767.16;5016283;28;20229;-71
2022/08/14 06:09:01;;;;;;;13.75;6.40;;;;;;;17.59;81.83;95767.41;5016444;28;20194;-71
2022/08/14 06:11:29;;;;;;;13.57;6.63;;;;;;;17.74;81.70;95773.91;5016190;28;20202;-71
2022/08/14 06:13:56;;;;;;;13.30;6.63;;;;;;;17.75;82.32;95764.03;5016601;28;20230;-71
2022/08/14 06:16:22;;;;;;;12.60;6.22;;;;;;;17.87;81.49;95751.50;5016338;28;21224;-71
2022/08/14 06:18:50;;;;;;;10.27;6.72;;;;;;;17.92;81.65;95746.28;5016470;28;20201;-71
2022/08/14 06:21:16;;;;;;;9.43;6.18;;;;;;;18.08;81.77;95738.38;5017323;28;20221;-71
2022/08/14 06:23:43;;;;;;;12.88;6.10;;;;;;;18.41;80.31;95744.72;5016487;28;20218;-71
2022/08/14 06:26:10;;;;;;;10.82;6.25;;;;;;;18.81;78.71;95737.47;5013348;28;20233;-71
2022/08/14 06:28:38;;;;;;;14.20;5.57;;;;;;;19.09;77.42;95729.47;5016890;28;20201;-71
2022/08/14 06:31:05;;;;;;;7.22;5.10;;;;;;;19.31;76.39;95739.22;5016796;28;20217;-71
2022/08/14 06:33:31;;;;;;;9.50;6.07;;;;;;;19.41;76.68;95747.41;5015468;28;20209;-71
2022/08/14 06:35:58;;;;;;;13.98;6.47;;;;;;;19.48;77.31;95744.56;5016807;28;20202;-71
2022/08/14 06:38:24;;;;;;;14.43;7.32;;;;;;;19.61;76.20;95740.50;5020268;28;20215;-70
2022/08/14 06:40:51;;;;;;;9.63;5.78;;;;;;;19.75;75.00;95739.09;5023234;28;20648;-70
2022/08/14 06:43:19;;;;;;;8.52;5.55;;;;;;;19.63;74.45;95733.03;5022716;28;20237;-70
2022/08/14 06:45:48;;;;;;;12.10;5.57;;;;;;;19.81;74.69;95722.06;5022594;28;20229;-70
2022/08/14 06:48:16;;;;;;;7.70;4.68;;;;;;;19.91;72.89;95727.59;5022153;28;20213;-71
2022/08/14 06:50:43;;;;;;;8.18;5.15;;;;;;;20.10;73.45;95720.91;5022945;28;20203;-71
2022/08/14 06:53:13;;;;;;;7.93;5.35;;;;;;;20.14;74.83;95711.34;5022497;28;20208;-70
2022/08/14 06:55:40;;;;;;;6.85;4.90;;;;;;;20.25;73.44;95705.88;5022938;28;20747;-70
2022/08/14 06:58:11;;;;;;;5.78;4.55;;;;;;;20.51;71.00;95702.41;5022688;28;20201;-69
2022/08/14 07:00:37;;;;;;;8.57;5.03;;;;;;;20.66;68.20;95691.88;5023390;28;20201;-69
2022/08/14 07:05:49;;;;;;;7.32;4.55;;;;;;;20.75;67.22;95697.63;5022777;28;20212;-69
2022/08/14 07:08:18;;;;;;;6.78;4.75;;;;;;;20.80;66.91;95695.81;5023141;28;20209;-68
2022/08/14 07:10:45;;;;;;;8.45;4.40;;;;;;;21.01;66.97;95690.38;5022631;28;20198;-68
2022/08/14 07:13:13;;;;;;;5.93;3.70;;;;;;;21.20;67.18;95677.44;5022508;28;20213;-69
2022/08/14 07:15:40;;;;;;;5.63;4.07;;;;;;;21.34;66.86;95681.31;5022857;28;20603;-70
2022/08/14 07:18:09;;;;;;;4.10;3.47;;;;;;;21.55;64.70;95678.56;5022812;28;20198;-70
2022/08/14 07:20:36;;;;;;;7.38;4.05;;;;;;;21.64;64.40;95682.38;5022862;28;20220;-70
2022/08/14 07:23:05;;;;;;;5.50;4.13;;;;;;;21.36;64.36;95679.97;5021647;28;20205;-70
2022/08/14 07:25:31;;;;;;;5.57;4.28;;;;;;;21.52;64.02;95679.03;5022265;28;20248;-70
2022/08/14 07:27:58;;;;;;;7.25;4.80;;;;;;;21.61;63.53;95682.84;5022564;28;20224;-70
2022/08/14 07:30:24;;;;;;;7.68;4.72;;;;;;;21.64;63.16;95674.31;5022803;28;20214;-70
2022/08/14 07:32:51;;;;;;;7.82;4.80;;;;;;;21.44;64.20;95674.94;5022068;28;20201;-70
2022/08/14 07:35:19;;;;;;;6.43;4.82;;;;;;;21.71;64.77;95682.94;5022318;28;20225;-70
2022/08/14 07:37:47;;;;;;;6.05;4.45;;;;;;;21.77;63.39;95679.22;5022262;28;20202;-70
2022/08/14 07:40:14;;;;;;;6.45;3.90;;;;;;;21.96;64.20;95680.38;5022858;28;20236;-70
2022/08/14 07:42:41;;;;;;;9.02;4.15;;;;;;;22.07;62.45;95686.38;5022107;28;20198;-70
2022/08/14 07:45:08;;;;;;;7.70;4.25;;;;;;;22.28;61.76;95684.63;5022544;28;21005;-70
2022/08/14 07:47:39;;;;;;;6.03;4.35;;;;;;;22.60;60.68;95672.63;5022425;28;20205;-70
2022/08/14 07:50:12;;;;;;;6.60;4.03;;;;;;;22.83;61.13;95674.84;5019430;28;20210;-70
2022/08/14 07:52:41;;;;;;;6.05;3.95;;;;;;;22.84;59.01;95665.72;5018274;28;20213;-70
2022/08/14 07:55:09;;;;;;;4.70;3.95;;;;;;;23.11;57.71;95663.63;5019333;28;20237;-70
2022/08/14 07:57:37;;;;;;;16.27;4.22;;;;;;;22.92;57.68;95665.19;5018883;28;21277;-71
2022/08/14 08:00:10;;;;;;;5.90;3.95;;;;;;;23.24;58.22;95658.50;5019490;28;20201;-70
2022/08/14 08:02:39;;;;;;;5.43;3.80;;;;;;;23.14;59.52;95660.41;5018488;28;20217;-70
2022/08/14 08:05:08;;;;;;;4.20;3.47;;;;;;;23.46;58.14;95654.50;5018622;28;20225;-70
2022/08/14 08:07:35;;;;;;;6.70;3.92;;;;;;;23.41;58.26;95653.69;5018734;28;20234;-70
2022/08/14 08:10:29;;;;;;;11.13;3.47;;;;;;;23.57;56.49;95668.72;5019173;28;20206;-70
2022/08/14 08:12:55;;;;;;;6.55;3.40;;;;;;;23.44;58.40;95666.59;5017128;28;20201;-70
2022/08/14 08:15:23;;;;;;;6.55;3.58;;;;;;;23.66;56.97;95661.72;5018840;28;20269;-70
2022/08/14 08:17:50;;;;;;;5.20;3.92;;;;;;;23.48;57.91;95663.06;5019092;28;20205;-70
2022/08/14 08:20:18;;;;;;;5.65;4.00;;;;;;;23.40;56.87;95660.94;5019087;28;20969;-70
2022/08/14 08:22:44;;;;;;;4.00;3.10;;;;;;;23.48;55.33;95659.59;5018588;28;20229;-70
2022/08/14 08:25:12;;;;;;;4.57;3.45;;;;;;;23.83;58.32;95660.38;5019120;28;20221;-69
2022/08/14 08:27:40;;;;;;;4.65;3.50;;;;;;;23.75;57.06;95666.31;5018584;28;20208;-70
2022/08/14 08:30:08;;;;;;;5.63;3.80;;;;;;;23.84;55.58;95670.06;5019179;28;20298;-70
2022/08/14 08:32:38;;;;;;;7.20;3.65;;;;;;;23.87;54.89;95674.09;5017253;28;20654;-70
2022/08/14 08:35:09;;;;;;;8.43;3.58;;;;;;;23.82;54.94;95674.13;5018229;28;20225;-70
2022/08/14 08:37:36;;;;;;;5.93;3.80;;;;;;;24.06;54.23;95673.25;5017817;28;20212;-70
2022/08/14 08:40:03;;;;;;;4.95;3.53;;;;;;;24.41;54.27;95665.88;5017044;28;21004;-69
2022/08/14 08:42:32;;;;;;;4.75;3.35;;;;;;;24.61;56.11;95655.78;5016643;28;20202;-70
2022/08/14 08:44:58;;;;;;;4.07;3.55;;;;;;;24.65;54.49;95659.53;5017508;28;20214;-70
2022/08/14 08:47:25;;;;;;;6.00;3.40;;;;;;;24.60;54.06;95651.50;5017875;28;20232;-70
2022/08/14 08:49:52;;;;;;;4.80;3.63;;;;;;;24.54;54.50;95654.47;5018776;28;20204;-69
2022/08/14 08:52:20;;;;;;;5.45;3.38;;;;;;;24.69;53.27;95657.94;5018081;28;20209;-70
2022/08/14 08:54:53;;;;;;;4.53;3.28;;;;;;;25.25;51.71;95660.00;5017885;28;20320;-70
2022/08/14 08:57:19;;;;;;;4.35;2.90;;;;;;;25.09;51.50;95660.41;5018715;28;20234;-69
2022/08/14 08:59:47;;;;;;;4.35;3.28;;;;;;;25.33;51.53;95651.31;5018541;28;20210;-70
2022/08/14 09:02:17;;;;;;;3.80;3.30;;;;;;;25.60;51.21;95650.78;5016593;28;20594;-70
2022/08/14 09:04:44;;;;;;;4.85;3.17;;;;;;;25.74;48.48;95651.75;5018840;28;20317;-70
2022/08/14 09:07:12;;;;;;;5.88;3.10;;;;;;;25.65;50.37;95651.56;5018367;28;20244;-70
2022/08/14 09:09:50;;;;;;;5.80;3.65;;;;;;;25.74;52.08;95651.75;5018258;28;20658;-69
2022/08/14 09:12:17;;;;;;;4.40;3.45;;;;;;;25.55;50.31;95656.25;5018147;28;20220;-70
2022/08/14 09:14:46;;;;;;;4.50;3.28;;;;;;;25.54;52.80;95649.25;5017702;28;20287;-70
2022/08/14 09:17:14;;;;;;;5.13;3.45;;;;;;;25.79;51.49;95639.03;5017773;28;20302;-69
2022/08/14 09:19:41;;;;;;;4.13;3.22;;;;;;;25.98;50.84;95642.59;5018141;28;20208;-70
2022/08/14 09:22:09;;;;;;;3.78;2.75;;;;;;;26.00;48.47;95641.22;5017509;28;20202;-69
2022/08/14 09:24:36;;;;;;;3.45;2.92;;;;;;;26.21;48.38;95648.03;5017304;28;20336;-70
2022/08/14 09:27:02;;;;;;;4.30;2.75;;;;;;;26.30;46.99;95632.78;5018042;28;20206;-70
2022/08/14 09:29:29;;;;;;;3.95;2.65;;;;;;;26.65;43.74;95618.84;5017282;28;20225;-70
2022/08/14 09:32:00;;;;;;;4.93;2.67;;;;;;;26.94;41.67;95620.31;5018247;28;20206;-70
2022/08/14 09:34:45;;;;;;;4.55;3.17;;;;;;;27.07;40.33;95626.91;5016845;28;20241;-70
2022/08/14 09:37:29;;;;;;;4.45;2.78;;;;;;;27.34;40.12;95636.75;5017661;28;20202;-69
2022/08/14 09:40:03;;;;;;;3.25;2.60;;;;;;;27.36;39.78;95626.44;5017811;28;21129;-70
2022/08/14 09:42:40;;;;;;;4.07;3.10;;;;;;;27.48;40.46;95617.84;5015674;28;20205;-70
2022/08/14 09:45:15;;;;;;;3.80;2.72;;;;;;;27.55;40.00;95623.69;5017289;28;20237;-70
2022/08/14 09:47:46;;;;;;;3.15;2.67;;;;;;;27.67;39.86;95616.72;5017485;28;20208;-69
2022/08/14 09:50:21;;;;;;;5.25;2.88;;;;;;;27.84;38.98;95619.69;5017065;28;20210;-70
2022/08/14 09:52:54;;;;;;;3.35;2.60;;;;;;;27.76;39.59;95617.63;5016623;28;20281;-69
2022/08/14 09:55:22;;;;;;;2.97;2.50;;;;;;;27.55;41.52;95619.06;5017047;28;20240;-69
2022/08/14 09:57:50;;;;;;;4.35;2.85;;;;;;;27.43;39.35;95609.81;5016804;28;20201;-70
2022/08/14 10:00:19;;;;;;;5.55;2.80;;;;;;;27.77;39.49;95605.72;5017282;28;20213;-70
2022/08/14 10:02:53;;;;;;;3.05;2.50;;;;;;;27.79;39.57;95608.94;5016533;28;20212;-71
2022/08/14 10:05:32;;;;;;;3.47;2.60;;;;;;;27.94;40.07;95614.88;5016070;28;20241;-69
2022/08/14 10:08:00;;;;;;;3.38;2.78;;;;;;;27.92;40.18;95602.72;5016116;28;20205;-69
2022/08/14 10:10:29;;;;;;;4.47;2.80;;;;;;;28.20;39.76;95607.09;5016899;28;21083;-68
2022/08/14 10:12:56;;;;;;;5.07;2.90;;;;;;;28.34;39.17;95612.19;5012160;28;20293;-70
2022/08/14 10:15:25;;;;;;;4.85;2.63;;;;;;;28.30;39.71;95601.44;5016130;28;20718;-68
2022/08/14 10:18:06;;;;;;;3.83;2.55;;;;;;;28.69;38.01;95588.94;5017788;28;20198;-70
2022/08/14 10:20:39;;;;;;;9.10;4.25;;;;;;;28.77;36.66;95583.63;5016940;28;20205;-68
2022/08/14 10:23:11;;;;;;;7.95;4.28;;;;;;;28.98;36.68;95576.63;5015736;28;20206;-69
2022/08/14 10:25:43;;;;;;;4.85;2.70;;;;;;;29.15;36.33;95568.59;5016803;28;20725;-71
2022/08/14 10:28:14;;;;;;;7.10;3.05;;;;;;;29.04;36.05;95565.34;5016447;28;20204;-69
2022/08/14 10:30:41;;;;;;;5.28;3.03;;;;;;;29.22;35.90;95556.22;5016182;28;20726;-70
2022/08/14 10:33:08;;;;;;;9.57;2.92;;;;;;;29.89;36.15;95555.06;5015854;28;20202;-70
2022/08/14 10:35:43;;;;;;;4.47;2.70;;;;;;;30.36;37.03;95546.91;5016014;28;20226;-70
2022/08/14 10:38:10;;;;;;;6.15;2.50;;;;;;;30.30;34.08;95548.16;5016557;28;20727;-70
2022/08/14 10:40:37;;;;;;;5.30;2.50;;;;;;;30.04;35.51;95552.72;5016549;28;20272;-70
2022/08/14 10:43:16;;;;;;;4.63;3.22;;;;;;;30.13;34.49;95548.13;5014038;28;20245;-69
2022/08/14 10:45:56;;;;;;;5.30;2.92;;;;;;;30.01;33.83;95542.47;5015273;28;20229;-69
2022/08/14 10:48:24;;;;;;;8.02;3.40;;;;;;;30.36;35.28;95541.47;5015172;28;20264;-70
2022/08/14 10:50:53;;;;;;;4.63;2.92;;;;;;;30.76;33.96;95530.19;5016196;28;20583;-70
2022/08/14 10:53:33;;;;;;;3.42;2.65;;;;;;;31.03;32.08;95533.41;5014455;28;20206;-70
2022/08/14 10:56:02;;;;;;;3.20;2.40;;;;;;;30.81;32.79;95518.34;5016105;28;20225;-70
2022/08/14 10:58:31;;;;;;;3.65;2.30;;;;;;;30.81;32.12;95518.34;5016084;28;20202;-67
2022/08/14 11:01:04;;;;;;;5.07;2.67;;;;;;;30.89;32.11;95510.97;5016143;28;20218;-69
2022/08/14 11:03:39;;;;;;;3.72;3.08;;;;;;;31.29;34.55;95506.97;5015108;28;20202;-70
2022/08/14 11:06:19;;;;;;;3.70;2.60;;;;;;;30.83;31.34;95508.75;5015695;28;20225;-69
2022/08/14 11:08:47;;;;;;;3.85;2.28;;;;;;;30.75;32.33;95508.72;5012523;28;20898;-70
2022/08/14 11:11:14;;;;;;;2.35;1.92;;;;;;;30.61;32.68;95505.38;5015798;28;20316;-69
2022/08/14 11:13:45;;;;;;;2.88;2.55;;;;;;;30.26;32.61;95509.94;5015393;28;20198;-70
2022/08/14 11:16:12;;;;;;;2.67;1.95;;;;;;;30.25;34.22;95512.97;5015928;28;20217;-70
2022/08/14 11:18:39;;;;;;;3.20;2.13;;;;;;;30.15;34.13;95502.38;5016156;28;20198;-70
2022/08/14 11:21:07;;;;;;;5.20;2.72;;;;;;;30.26;33.69;95479.22;5016521;28;20206;-70
2022/08/14 11:23:38;;;;;;;2.72;2.20;;;;;;;30.32;31.57;95484.19;5014947;28;20686;-70
2022/08/14 11:26:06;;;;;;;2.50;2.10;;;;;;;30.05;31.16;95491.81;5018807;28;20662;-68
2022/08/14 11:28:37;;;;;;;2.92;2.10;;;;;;;30.19;31.38;95497.91;5019730;28;20309;-69
2022/08/14 11:31:08;;;;;;;4.95;1.90;;;;;;;30.11;31.73;95501.41;5019703;28;20311;-70
2022/08/14 11:33:36;;;;;;;5.50;2.20;;;;;;;30.48;30.81;95490.00;5018557;28;20217;-70
2022/08/14 11:36:05;;;;;;;3.38;2.50;;;;;;;30.64;30.75;95493.84;5019277;28;20288;-70
2022/08/14 11:38:37;;;;;;;3.22;2.25;;;;;;;30.83;30.74;95491.59;5019610;28;20206;-70
2022/08/14 11:41:04;;;;;;;4.50;2.67;;;;;;;30.75;31.07;95495.91;5019256;28;20666;-69
2022/08/14 11:43:31;;;;;;;6.25;2.30;;;;;;;31.03;31.46;95476.25;5018229;28;20241;-69
2022/08/14 11:46:00;;;;;;;2.40;2.20;;;;;;;31.31;30.89;95476.69;5019710;28;20206;-69
2022/08/14 11:48:28;;;;;;;2.50;1.60;;;;;;;31.17;27.13;95484.22;5019145;28;20724;-71
2022/08/14 11:50:54;;;;;;;2.10;1.90;;;;;;;30.74;28.46;95482.63;5019637;28;20589;-70
2022/08/14 11:53:29;;;;;;;2.72;2.20;;;;;;;30.83;29.94;95476.88;5018487;28;20225;-71